Time;durP1;ratioP1;P1;durP2;ratioP2;P2;SDS_P1;SDS_P2;PMS_P1;PMS_P2;Temp;Humidity;BMP_temperature;BMP_pressure;BME280_temperature;BME280_humidity;BME280_pressure;Samples;Min_cycle;Max_cycle;Signal;HPM_P1;HPM_P2
2023/09/03 00:00:18;;;;;;;1.15;1.10;;;;;;;;;;5017234;28;20033;-78
2023/09/03 00:02:44;;;;;;;1.10;1.10;;;;;;;;;;4999487;28;20040;-79
2023/09/03 00:05:10;;;;;;;0.90;0.90;;;;;;;;;;5017150;28;20037;-77
2023/09/03 00:07:36;;;;;;;1.10;1.10;;;;;;;;;;5016900;28;20022;-78
2023/09/03 00:10:02;;;;;;;0.93;0.93;;;;;;;;;;5017666;28;20045;-78
2023/09/03 00:12:28;;;;;;;1.23;1.13;;;;;;;;;;5021684;28;20026;-79
2023/09/03 00:14:55;;;;;;;1.45;0.82;;;;;;;;;;5030276;28;20627;-79
2023/09/03 00:17:21;;;;;;;0.82;0.82;;;;;;;;;;5021142;28;20032;-79
2023/09/03 00:19:47;;;;;;;0.88;0.88;;;;;;;;;;5046025;28;20044;-79
2023/09/03 00:22:13;;;;;;;1.05;1.00;;;;;;;;;;5054568;28;20060;-80
2023/09/03 00:24:39;;;;;;;0.98;0.98;;;;;;;;;;5009012;28;20081;-79
2023/09/03 00:27:05;;;;;;;1.27;1.17;;;;;;;;;;5016488;28;20061;-78
2023/09/03 00:29:32;;;;;;;1.27;1.15;;;;;;;;;;5015945;28;20044;-77
2023/09/03 00:31:58;;;;;;;1.00;1.00;;;;;;;;;;4998507;28;20057;-78
2023/09/03 00:34:24;;;;;;;1.25;1.15;;;;;;;;;;5016458;28;20034;-79
2023/09/03 00:36:50;;;;;;;1.30;1.20;;;;;;;;;;4998501;28;20493;-79
2023/09/03 00:39:18;;;;;;;0.90;0.90;;;;;;;;;;5016099;28;20021;-77
2023/09/03 00:41:44;;;;;;;1.15;1.10;;;;;;;;;;5016359;28;20022;-79
2023/09/03 00:44:11;;;;;;;1.10;1.02;;;;;;;;;;5031669;28;20025;-78
2023/09/03 00:46:37;;;;;;;1.00;1.00;;;;;;;;;;5023309;28;20037;-79
2023/09/03 00:49:03;;;;;;;1.23;1.20;;;;;;;;;;5015940;28;20045;-78
2023/09/03 00:51:29;;;;;;;1.60;1.42;;;;;;;;;;4997851;28;20041;-78
2023/09/03 00:53:56;;;;;;;1.15;1.02;;;;;;;;;;5015581;28;20029;-79
2023/09/03 00:56:23;;;;;;;1.30;1.10;;;;;;;;;;5015917;28;20026;-77
2023/09/03 00:58:49;;;;;;;1.27;1.17;;;;;;;;;;5016238;28;20022;-78
2023/09/03 01:01:15;;;;;;;1.00;0.95;;;;;;;;;;5015761;28;20022;-78
2023/09/03 01:03:42;;;;;;;1.73;1.10;;;;;;;;;;5014609;28;20037;-77
2023/09/03 01:06:09;;;;;;;0.88;0.80;;;;;;;;;;5015426;28;20018;-77
2023/09/03 01:08:36;;;;;;;1.02;1.00;;;;;;;;;;4997133;28;20030;-78
2023/09/03 01:11:06;;;;;;;1.00;1.00;;;;;;;;;;5013993;28;20022;-78
2023/09/03 01:13:36;;;;;;;1.38;1.10;;;;;;;;;;5025657;28;20087;-78
2023/09/03 01:16:05;;;;;;;1.20;1.20;;;;;;;;;;5026793;28;20021;-78
2023/09/03 01:18:31;;;;;;;1.20;1.10;;;;;;;;;;5031978;28;20026;-78
2023/09/03 01:21:06;;;;;;;1.00;1.00;;;;;;;;;;4995391;28;20018;-79
2023/09/03 01:23:38;;;;;;;0.73;0.73;;;;;;;;;;5003925;28;20026;-79
2023/09/03 01:26:09;;;;;;;1.00;0.90;;;;;;;;;;4997180;28;20030;-79
2023/09/03 01:28:37;;;;;;;1.02;1.00;;;;;;;;;;5015331;28;20029;-78
2023/09/03 01:31:06;;;;;;;0.95;0.95;;;;;;;;;;5015101;28;20060;-77
2023/09/03 01:33:34;;;;;;;0.82;0.82;;;;;;;;;;4995557;28;20030;-78
2023/09/03 01:36:00;;;;;;;0.70;0.70;;;;;;;;;;5014608;28;20109;-77
2023/09/03 01:38:26;;;;;;;1.15;1.05;;;;;;;;;;5016092;28;20310;-79
2023/09/03 01:40:57;;;;;;;0.80;0.80;;;;;;;;;;4997486;28;20044;-78
2023/09/03 01:43:24;;;;;;;0.90;0.90;;;;;;;;;;5027936;28;20487;-77
2023/09/03 01:45:58;;;;;;;0.80;0.80;;;;;;;;;;5026418;28;20021;-78
2023/09/03 01:48:37;;;;;;;0.80;0.80;;;;;;;;;;5014504;28;20030;-77
2023/09/03 01:51:22;;;;;;;0.98;0.98;;;;;;;;;;5015292;28;20026;-78
2023/09/03 01:53:51;;;;;;;0.82;0.82;;;;;;;;;;5017045;28;20013;-78
2023/09/03 01:56:20;;;;;;;0.77;0.73;;;;;;;;;;5029902;28;20034;-78
2023/09/03 01:58:48;;;;;;;0.82;0.82;;;;;;;;;;5027670;28;20030;-79
2023/09/03 02:01:14;;;;;;;1.17;1.08;;;;;;;;;;5015560;28;20082;-77
2023/09/03 02:03:41;;;;;;;1.00;0.95;;;;;;;;;;5014210;28;20149;-76
2023/09/03 02:06:07;;;;;;;1.10;1.00;;;;;;;;;;4998693;28;20189;-78
2023/09/03 02:08:33;;;;;;;0.88;0.88;;;;;;;;;;4978045;28;20030;-78
2023/09/03 02:10:59;;;;;;;0.80;0.80;;;;;;;;;;4981526;28;20021;-78
2023/09/03 02:13:25;;;;;;;1.00;1.00;;;;;;;;;;5023086;28;20096;-79
2023/09/03 02:15:51;;;;;;;0.90;0.90;;;;;;;;;;5025779;28;20022;-79
2023/09/03 02:18:17;;;;;;;1.13;0.85;;;;;;;;;;5034646;28;20018;-78
2023/09/03 02:20:44;;;;;;;0.90;0.90;;;;;;;;;;4997971;28;20126;-78
2023/09/03 02:23:10;;;;;;;0.68;0.68;;;;;;;;;;4998916;28;20076;-79
2023/09/03 02:25:36;;;;;;;0.77;0.77;;;;;;;;;;5009037;28;20024;-79
2023/09/03 02:28:02;;;;;;;0.80;0.80;;;;;;;;;;5006233;28;20037;-80
2023/09/03 02:30:28;;;;;;;0.85;0.85;;;;;;;;;;5003487;28;20037;-79
2023/09/03 02:32:54;;;;;;;0.80;0.80;;;;;;;;;;5021708;28;20026;-78
2023/09/03 02:35:20;;;;;;;0.80;0.80;;;;;;;;;;5020402;28;20102;-79
2023/09/03 02:37:47;;;;;;;1.08;1.08;;;;;;;;;;5002194;28;20025;-78
2023/09/03 02:40:13;;;;;;;1.48;1.35;;;;;;;;;;5001513;28;20032;-77
2023/09/03 02:42:39;;;;;;;1.08;1.02;;;;;;;;;;5021254;28;20017;-79
2023/09/03 02:45:05;;;;;;;1.88;1.70;;;;;;;;;;5002466;28;20080;-77
2023/09/03 02:47:31;;;;;;;1.17;1.13;;;;;;;;;;5019001;28;20026;-78
2023/09/03 02:49:57;;;;;;;1.42;1.33;;;;;;;;;;5013520;28;20033;-78
2023/09/03 02:52:23;;;;;;;1.77;1.55;;;;;;;;;;5007511;28;20056;-78
2023/09/03 02:54:49;;;;;;;1.40;1.30;;;;;;;;;;5013089;28;20029;-79
2023/09/03 02:57:15;;;;;;;1.58;1.40;;;;;;;;;;5013731;28;20504;-79
2023/09/03 02:59:44;;;;;;;1.50;1.40;;;;;;;;;;5014315;28;20408;-79
2023/09/03 03:02:11;;;;;;;1.02;1.02;;;;;;;;;;5013761;28;20041;-79
2023/09/03 03:04:37;;;;;;;1.73;1.38;;;;;;;;;;5013722;28;20048;-79
2023/09/03 03:07:03;;;;;;;1.25;1.17;;;;;;;;;;5013540;28;20477;-79
2023/09/03 03:09:29;;;;;;;1.75;1.65;;;;;;;;;;4994468;28;20092;-79
2023/09/03 03:11:55;;;;;;;1.70;1.60;;;;;;;;;;5011694;28;20389;-77
2023/09/03 03:14:21;;;;;;;1.38;1.27;;;;;;;;;;5025003;28;20029;-77
2023/09/03 03:16:47;;;;;;;1.55;1.45;;;;;;;;;;5026013;28;20101;-79
2023/09/03 03:19:13;;;;;;;1.50;1.40;;;;;;;;;;5033502;28;20049;-81
2023/09/03 03:21:39;;;;;;;1.70;1.60;;;;;;;;;;5032422;28;20411;-79
2023/09/03 03:24:06;;;;;;;1.80;1.70;;;;;;;;;;5025033;28;20033;-79
2023/09/03 03:26:34;;;;;;;1.38;1.27;;;;;;;;;;5014671;28;20029;-79
2023/09/03 03:29:00;;;;;;;1.02;1.02;;;;;;;;;;5025231;28;20056;-79
2023/09/03 03:31:26;;;;;;;1.20;1.10;;;;;;;;;;5024921;28;20026;-79
2023/09/03 03:33:52;;;;;;;1.27;1.25;;;;;;;;;;5000757;28;20036;-79
2023/09/03 03:36:19;;;;;;;0.82;0.82;;;;;;;;;;5028918;28;20018;-79
2023/09/03 03:38:46;;;;;;;1.00;1.00;;;;;;;;;;5030177;28;20013;-79
2023/09/03 03:41:17;;;;;;;1.38;1.27;;;;;;;;;;5021866;28;20025;-79
2023/09/03 03:43:45;;;;;;;1.00;0.90;;;;;;;;;;5029391;28;20041;-80
2023/09/03 03:46:14;;;;;;;1.10;1.02;;;;;;;;;;5003779;28;20046;-81
2023/09/03 03:48:40;;;;;;;1.00;0.95;;;;;;;;;;5028153;28;20024;-79
2023/09/03 03:51:06;;;;;;;1.40;1.30;;;;;;;;;;5025019;28;20036;-79
2023/09/03 03:53:33;;;;;;;1.08;1.02;;;;;;;;;;5026827;28;20533;-81
2023/09/03 03:56:01;;;;;;;0.90;0.90;;;;;;;;;;5030923;28;20481;-82
2023/09/03 03:58:31;;;;;;;0.65;0.65;;;;;;;;;;5031096;28;20053;-81
2023/09/03 04:00:58;;;;;;;0.98;0.98;;;;;;;;;;5035930;28;20045;-80
2023/09/03 04:03:24;;;;;;;0.90;0.90;;;;;;;;;;5037476;28;20084;-81
2023/09/03 04:06:00;;;;;;;0.65;0.65;;;;;;;;;;4987951;28;20061;-77
2023/09/03 04:08:27;;;;;;;0.80;0.80;;;;;;;;;;4992430;28;20035;-78
2023/09/03 04:11:00;;;;;;;0.80;0.80;;;;;;;;;;4992757;28;20421;-78
2023/09/03 04:13:26;;;;;;;0.98;0.90;;;;;;;;;;5025019;28;20029;-76
2023/09/03 04:15:53;;;;;;;1.08;1.02;;;;;;;;;;5015837;28;20508;-77
2023/09/03 04:18:19;;;;;;;1.00;1.00;;;;;;;;;;5015382;28;20022;-77
2023/09/03 04:20:45;;;;;;;1.08;0.98;;;;;;;;;;5024363;28;20022;-77
2023/09/03 04:23:11;;;;;;;1.00;1.00;;;;;;;;;;5025327;28;20066;-77
2023/09/03 04:25:38;;;;;;;1.30;1.20;;;;;;;;;;5035366;28;20052;-77
2023/09/03 04:28:04;;;;;;;1.13;1.10;;;;;;;;;;5016953;28;20033;-76
2023/09/03 04:30:30;;;;;;;0.98;0.98;;;;;;;;;;5050412;28;20021;-76
2023/09/03 04:32:56;;;;;;;1.50;1.40;;;;;;;;;;5048129;28;20037;-76
2023/09/03 04:35:22;;;;;;;1.27;1.17;;;;;;;;;;4997977;28;20022;-75
2023/09/03 04:37:50;;;;;;;1.48;1.38;;;;;;;;;;5012255;28;20014;-76
2023/09/03 04:40:16;;;;;;;0.93;0.93;;;;;;;;;;5023728;28;20020;-76
2023/09/03 04:42:42;;;;;;;0.95;0.93;;;;;;;;;;4990518;28;20022;-78
2023/09/03 04:45:09;;;;;;;1.27;1.20;;;;;;;;;;5022731;28;20350;-77
2023/09/03 04:47:35;;;;;;;0.82;0.82;;;;;;;;;;5030953;28;20074;-78
2023/09/03 04:50:01;;;;;;;1.00;1.00;;;;;;;;;;5016947;28;20022;-79
2023/09/03 04:52:27;;;;;;;0.82;0.82;;;;;;;;;;5016095;28;20092;-79
2023/09/03 04:54:54;;;;;;;0.68;0.68;;;;;;;;;;5015926;28;20057;-78
2023/09/03 04:57:20;;;;;;;0.93;0.90;;;;;;;;;;5016110;28;20018;-78
2023/09/03 04:59:47;;;;;;;1.08;1.08;;;;;;;;;;5015956;28;20477;-76
2023/09/03 05:02:13;;;;;;;1.10;1.10;;;;;;;;;;5015424;28;20045;-77
2023/09/03 05:04:39;;;;;;;0.98;0.90;;;;;;;;;;5022128;28;20014;-77
2023/09/03 05:07:06;;;;;;;1.00;1.00;;;;;;;;;;5023183;28;20067;-77
2023/09/03 05:09:32;;;;;;;1.45;1.35;;;;;;;;;;5023846;28;20024;-77
2023/09/03 05:11:58;;;;;;;0.90;0.90;;;;;;;;;;5029417;28;20037;-77
2023/09/03 05:14:25;;;;;;;0.80;0.80;;;;;;;;;;5027332;28;20453;-78
2023/09/03 05:16:51;;;;;;;0.90;0.90;;;;;;;;;;5019907;28;20022;-76
2023/09/03 05:19:17;;;;;;;0.98;0.98;;;;;;;;;;4999158;28;20022;-76
2023/09/03 05:21:43;;;;;;;0.75;0.75;;;;;;;;;;4996499;28;20386;-77
2023/09/03 05:24:12;;;;;;;0.80;0.80;;;;;;;;;;5011334;28;20042;-76
2023/09/03 05:26:38;;;;;;;1.05;0.98;;;;;;;;;;5021316;28;20025;-78
2023/09/03 05:29:04;;;;;;;1.00;1.00;;;;;;;;;;5026593;28;20103;-77
2023/09/03 05:31:30;;;;;;;1.25;1.20;;;;;;;;;;5034439;28;20049;-76
2023/09/03 05:33:57;;;;;;;0.85;0.85;;;;;;;;;;5034471;28;20035;-76
2023/09/03 05:36:23;;;;;;;1.35;1.17;;;;;;;;;;5034168;28;20101;-77
2023/09/03 05:38:49;;;;;;;1.10;1.00;;;;;;;;;;4993215;28;20442;-77
2023/09/03 05:41:15;;;;;;;0.98;0.98;;;;;;;;;;5012129;28;20133;-77
2023/09/03 05:43:41;;;;;;;1.10;1.10;;;;;;;;;;5021461;28;20025;-77
2023/09/03 05:46:07;;;;;;;0.95;0.95;;;;;;;;;;5014226;28;20088;-77
2023/09/03 05:48:33;;;;;;;0.90;0.90;;;;;;;;;;5013598;28;20022;-77
2023/09/03 05:51:03;;;;;;;1.00;1.00;;;;;;;;;;5009147;28;20513;-76
2023/09/03 05:53:30;;;;;;;0.90;0.90;;;;;;;;;;5017355;28;20025;-77
2023/09/03 05:56:05;;;;;;;0.80;0.80;;;;;;;;;;5014369;28;20493;-76
2023/09/03 05:58:32;;;;;;;0.77;0.77;;;;;;;;;;5000944;28;20082;-77
2023/09/03 06:01:08;;;;;;;0.77;0.77;;;;;;;;;;5015359;28;20071;-78
2023/09/03 06:03:35;;;;;;;0.93;0.93;;;;;;;;;;5003179;28;20058;-78
2023/09/03 06:06:05;;;;;;;0.70;0.70;;;;;;;;;;5012784;28;20097;-78
2023/09/03 06:08:32;;;;;;;0.70;0.70;;;;;;;;;;4999623;28;20370;-77
2023/09/03 06:10:58;;;;;;;0.70;0.70;;;;;;;;;;4989388;28;20544;-77
2023/09/03 06:13:25;;;;;;;0.80;0.80;;;;;;;;;;5012093;28;20036;-78
2023/09/03 06:15:51;;;;;;;1.00;1.00;;;;;;;;;;4992708;28;20141;-78
2023/09/03 06:18:17;;;;;;;0.85;0.85;;;;;;;;;;5020901;28;20026;-77
2023/09/03 06:20:43;;;;;;;1.05;1.05;;;;;;;;;;5013394;28;20029;-79
2023/09/03 06:23:09;;;;;;;0.82;0.82;;;;;;;;;;5012254;28;20030;-78
2023/09/03 06:25:40;;;;;;;1.45;1.35;;;;;;;;;;5023372;28;20108;-79
2023/09/03 06:28:06;;;;;;;1.60;1.50;;;;;;;;;;5017297;28;20402;-80
2023/09/03 06:30:32;;;;;;;1.10;1.10;;;;;;;;;;5014320;28;20165;-79
2023/09/03 06:32:58;;;;;;;1.60;1.50;;;;;;;;;;4999699;28;20034;-77
2023/09/03 06:35:25;;;;;;;1.17;1.15;;;;;;;;;;4999843;28;20026;-78
2023/09/03 06:37:51;;;;;;;2.20;2.00;;;;;;;;;;4983021;28;20026;-78
2023/09/03 06:40:17;;;;;;;2.03;1.83;;;;;;;;;;5003200;28;20030;-78
2023/09/03 06:42:43;;;;;;;1.73;1.63;;;;;;;;;;5001366;28;20033;-78
2023/09/03 06:45:09;;;;;;;1.60;1.50;;;;;;;;;;5019195;28;20061;-78
2023/09/03 06:47:36;;;;;;;2.30;2.10;;;;;;;;;;5010643;28;20469;-78
2023/09/03 06:50:02;;;;;;;3.03;2.17;;;;;;;;;;5014623;28;20021;-79
2023/09/03 06:52:28;;;;;;;5.03;3.72;;;;;;;;;;5011903;28;20018;-78
2023/09/03 06:54:54;;;;;;;4.18;3.78;;;;;;;;;;4997067;28;20033;-77
2023/09/03 06:57:20;;;;;;;3.97;3.45;;;;;;;;;;4995254;28;20533;-77
2023/09/03 06:59:46;;;;;;;3.20;2.90;;;;;;;;;;4994734;28;20026;-79
2023/09/03 07:02:12;;;;;;;3.17;2.88;;;;;;;;;;4994681;28;20137;-77
2023/09/03 07:04:38;;;;;;;3.10;2.85;;;;;;;;;;4994746;28;20098;-78
2023/09/03 07:07:04;;;;;;;2.92;2.55;;;;;;;;;;4991524;28;20316;-78
2023/09/03 07:09:32;;;;;;;2.35;2.15;;;;;;;;;;5014022;28;20435;-78
2023/09/03 07:11:59;;;;;;;1.90;1.80;;;;;;;;;;5000614;28;20088;-77
2023/09/03 07:14:25;;;;;;;3.35;2.47;;;;;;;;;;4995003;28;20445;-78
2023/09/03 07:16:52;;;;;;;2.88;2.38;;;;;;;;;;5009423;28;20026;-78
2023/09/03 07:19:18;;;;;;;3.00;2.70;;;;;;;;;;5011546;28;20032;-78
2023/09/03 07:21:44;;;;;;;1.90;1.80;;;;;;;;;;5011114;28;20033;-78
2023/09/03 07:24:11;;;;;;;2.03;1.85;;;;;;;;;;5008502;28;20401;-79
2023/09/03 07:26:37;;;;;;;2.33;2.20;;;;;;;;;;5014246;28;20028;-79
2023/09/03 07:29:03;;;;;;;2.00;1.77;;;;;;;;;;5000919;28;20103;-77
2023/09/03 07:31:29;;;;;;;2.35;1.70;;;;;;;;;;4995405;28;20026;-78
2023/09/03 07:33:58;;;;;;;2.10;1.98;;;;;;;;;;5003847;28;20018;-79
2023/09/03 07:36:24;;;;;;;1.90;1.80;;;;;;;;;;5016249;28;20056;-77
2023/09/03 07:38:50;;;;;;;2.25;1.92;;;;;;;;;;4997237;28;20049;-78
2023/09/03 07:41:16;;;;;;;2.92;2.00;;;;;;;;;;5014444;28;20480;-78
2023/09/03 07:43:42;;;;;;;2.70;2.30;;;;;;;;;;5009235;28;20037;-78
2023/09/03 07:46:08;;;;;;;2.50;2.30;;;;;;;;;;5013797;28;20061;-78
2023/09/03 07:48:34;;;;;;;1.92;1.73;;;;;;;;;;5015025;28;20176;-79
2023/09/03 07:51:00;;;;;;;2.35;2.15;;;;;;;;;;4997637;28;20071;-77
2023/09/03 07:53:28;;;;;;;1.92;1.80;;;;;;;;;;5015501;28;20033;-79
2023/09/03 07:55:54;;;;;;;2.17;2.05;;;;;;;;;;5007962;28;20503;-78
2023/09/03 07:58:20;;;;;;;2.25;1.80;;;;;;;;;;4995923;28;20429;-78
2023/09/03 08:00:46;;;;;;;2.50;1.90;;;;;;;;;;5000057;28;20037;-77
2023/09/03 08:03:12;;;;;;;2.00;1.90;;;;;;;;;;5012801;28;20030;-78
2023/09/03 08:05:38;;;;;;;1.85;1.75;;;;;;;;;;4996114;28;20452;-79
2023/09/03 08:08:04;;;;;;;1.67;1.52;;;;;;;;;;4987149;28;20034;-80
2023/09/03 08:10:30;;;;;;;1.63;1.52;;;;;;;;;;5012973;28;20030;-78
2023/09/03 08:12:56;;;;;;;2.47;1.95;;;;;;;;;;5024067;28;20036;-79
2023/09/03 08:15:22;;;;;;;1.92;1.83;;;;;;;;;;5017554;28;20018;-78
2023/09/03 08:17:48;;;;;;;2.03;1.85;;;;;;;;;;5014540;28;20018;-78
2023/09/03 08:20:15;;;;;;;1.10;1.10;;;;;;;;;;5028694;28;20030;-78
2023/09/03 08:22:41;;;;;;;1.60;1.50;;;;;;;;;;5023965;28;20034;-79
2023/09/03 08:25:07;;;;;;;1.77;1.67;;;;;;;;;;5029332;28;20025;-79
2023/09/03 08:27:33;;;;;;;1.50;1.40;;;;;;;;;;5007743;28;20037;-78
2023/09/03 08:29:59;;;;;;;1.85;1.75;;;;;;;;;;5017576;28;20025;-78
2023/09/03 08:32:25;;;;;;;1.60;1.50;;;;;;;;;;5018818;28;20021;-77
2023/09/03 08:34:53;;;;;;;2.30;1.98;;;;;;;;;;5017898;28;20102;-78
2023/09/03 08:37:19;;;;;;;1.88;1.67;;;;;;;;;;5018197;28;20018;-79
2023/09/03 08:39:45;;;;;;;1.40;1.30;;;;;;;;;;5019125;28;20022;-78
2023/09/03 08:42:12;;;;;;;2.05;1.95;;;;;;;;;;5025509;28;20030;-78
2023/09/03 08:44:46;;;;;;;1.60;1.45;;;;;;;;;;5000191;28;20117;-79
2023/09/03 08:47:13;;;;;;;1.38;1.27;;;;;;;;;;5020183;28;20026;-79
2023/09/03 08:49:40;;;;;;;1.38;1.27;;;;;;;;;;5000698;28;20028;-78
2023/09/03 08:52:07;;;;;;;1.65;1.25;;;;;;;;;;5001850;28;20026;-78
2023/09/03 08:54:34;;;;;;;1.10;1.10;;;;;;;;;;5008361;28;20033;-79
2023/09/03 08:57:01;;;;;;;1.70;1.60;;;;;;;;;;5016325;28;20045;-78
2023/09/03 08:59:27;;;;;;;1.10;1.10;;;;;;;;;;5015932;28;20049;-78
2023/09/03 09:01:54;;;;;;;1.17;1.17;;;;;;;;;;5018001;28;20548;-78
2023/09/03 09:04:23;;;;;;;1.38;1.38;;;;;;;;;;5015885;28;20036;-80
2023/09/03 09:06:50;;;;;;;1.35;1.27;;;;;;;;;;4999152;28;20030;-78
2023/09/03 09:09:16;;;;;;;1.70;1.60;;;;;;;;;;5019457;28;20044;-78
2023/09/03 09:12:02;;;;;;;1.25;1.25;;;;;;;;;;5018092;28;20081;-77
2023/09/03 09:14:36;;;;;;;1.60;1.50;;;;;;;;;;5010826;28;20025;-79
2023/09/03 09:17:02;;;;;;;1.48;1.38;;;;;;;;;;5021610;28;20017;-80
2023/09/03 09:19:28;;;;;;;1.05;1.00;;;;;;;;;;5026930;28;20453;-79
2023/09/03 09:21:54;;;;;;;1.00;1.00;;;;;;;;;;5020721;28;20021;-78
2023/09/03 09:24:20;;;;;;;0.90;0.90;;;;;;;;;;5017601;28;20119;-78
2023/09/03 09:26:46;;;;;;;0.90;0.90;;;;;;;;;;5012384;28;20026;-78
2023/09/03 09:29:12;;;;;;;1.17;1.17;;;;;;;;;;5000946;28;20121;-79
2023/09/03 09:31:38;;;;;;;2.55;1.15;;;;;;;;;;5001586;28;20026;-78
2023/09/03 09:34:12;;;;;;;1.45;1.35;;;;;;;;;;5015273;28;20042;-79
2023/09/03 09:36:39;;;;;;;1.08;1.08;;;;;;;;;;5010765;28;20389;-79
2023/09/03 09:39:08;;;;;;;1.40;1.30;;;;;;;;;;5007397;28;20029;-79
2023/09/03 09:41:38;;;;;;;1.10;1.10;;;;;;;;;;5019279;28;20034;-78
2023/09/03 09:44:09;;;;;;;1.17;1.17;;;;;;;;;;5022281;28;20060;-79
2023/09/03 09:46:35;;;;;;;1.35;1.25;;;;;;;;;;4999454;28;20090;-79
2023/09/03 09:49:02;;;;;;;1.10;1.10;;;;;;;;;;5033987;28;20035;-79
2023/09/03 09:51:29;;;;;;;1.17;1.08;;;;;;;;;;5025110;28;20026;-79
2023/09/03 09:54:02;;;;;;;1.15;1.10;;;;;;;;;;5024819;28;20038;-79
2023/09/03 09:56:29;;;;;;;1.25;1.15;;;;;;;;;;5022939;28;20030;-79
2023/09/03 09:58:57;;;;;;;1.67;1.20;;;;;;;;;;5010968;28;20125;-79
2023/09/03 10:01:25;;;;;;;1.27;1.27;;;;;;;;;;5015777;28;20030;-79
2023/09/03 10:03:51;;;;;;;1.52;1.20;;;;;;;;;;5007007;28;20072;-78
2023/09/03 10:06:19;;;;;;;1.17;1.08;;;;;;;;;;5021220;28;20030;-78
2023/09/03 10:08:46;;;;;;;1.90;1.27;;;;;;;;;;5027822;28;20037;-77
2023/09/03 10:11:12;;;;;;;1.10;1.10;;;;;;;;;;5031678;28;20021;-78
2023/09/03 10:13:39;;;;;;;1.17;1.17;;;;;;;;;;5042989;28;20030;-78
2023/09/03 10:16:09;;;;;;;1.02;1.02;;;;;;;;;;5004354;28;20092;-78
2023/09/03 10:18:36;;;;;;;1.17;1.15;;;;;;;;;;5012464;28;20022;-78
2023/09/03 10:21:05;;;;;;;1.35;1.25;;;;;;;;;;4998039;28;20064;-79
2023/09/03 10:23:34;;;;;;;1.25;1.20;;;;;;;;;;5021925;28;20034;-78
2023/09/03 10:26:02;;;;;;;1.00;1.00;;;;;;;;;;5032109;28;20014;-78
2023/09/03 10:28:28;;;;;;;1.08;1.08;;;;;;;;;;5043627;28;20022;-78
2023/09/03 10:30:55;;;;;;;1.05;1.05;;;;;;;;;;5038249;28;20041;-78
2023/09/03 10:33:21;;;;;;;1.15;1.08;;;;;;;;;;5024130;28;20018;-79
2023/09/03 10:36:06;;;;;;;1.65;1.15;;;;;;;;;;4996498;28;20037;-79
2023/09/03 10:38:32;;;;;;;0.90;0.90;;;;;;;;;;5000139;28;20027;-78
2023/09/03 10:41:17;;;;;;;1.00;1.00;;;;;;;;;;4998575;28;20022;-78
2023/09/03 10:43:45;;;;;;;1.20;1.20;;;;;;;;;;5004545;28;20076;-79
2023/09/03 10:46:11;;;;;;;1.45;1.35;;;;;;;;;;5001072;28;20469;-78
2023/09/03 10:48:38;;;;;;;2.35;1.30;;;;;;;;;;5006764;28;20037;-79
2023/09/03 10:51:04;;;;;;;1.00;1.00;;;;;;;;;;4983916;28;20038;-79
2023/09/03 10:53:43;;;;;;;1.45;1.35;;;;;;;;;;4991556;28;20018;-79
2023/09/03 10:56:15;;;;;;;1.08;1.08;;;;;;;;;;5002098;28;20026;-79
2023/09/03 10:59:08;;;;;;;1.17;1.10;;;;;;;;;;5021646;28;20022;-79
2023/09/03 11:01:34;;;;;;;1.40;1.30;;;;;;;;;;5017982;28;20037;-78
2023/09/03 11:04:02;;;;;;;1.10;1.10;;;;;;;;;;5018846;28;20090;-79
2023/09/03 11:06:31;;;;;;;1.25;1.15;;;;;;;;;;5017763;28;20026;-79
2023/09/03 11:09:00;;;;;;;1.45;1.35;;;;;;;;;;5016337;28;20025;-79
2023/09/03 11:11:28;;;;;;;1.50;1.40;;;;;;;;;;5010191;28;20037;-79
2023/09/03 11:13:55;;;;;;;1.45;1.35;;;;;;;;;;5016396;28;20378;-79
2023/09/03 11:16:31;;;;;;;1.90;1.73;;;;;;;;;;5000104;28;20025;-77
2023/09/03 11:18:57;;;;;;;1.25;1.20;;;;;;;;;;5007841;28;20021;-79
2023/09/03 11:21:24;;;;;;;1.60;1.50;;;;;;;;;;5017573;28;20030;-78
2023/09/03 11:24:14;;;;;;;1.63;1.50;;;;;;;;;;5014344;28;20030;-78
2023/09/03 11:26:41;;;;;;;1.52;1.42;;;;;;;;;;5016991;28;20053;-78
2023/09/03 11:29:18;;;;;;;1.05;1.00;;;;;;;;;;5013401;28;20025;-78
2023/09/03 11:31:50;;;;;;;1.35;1.00;;;;;;;;;;5013497;28;20113;-79
2023/09/03 11:34:16;;;;;;;;;;;;;;;;;;4994864;28;20027;-78
2023/09/03 11:36:42;;;;;;;1.35;1.10;;;;;;;;;;5001225;28;19929;-79
2023/09/03 11:39:14;;;;;;;1.27;1.17;;;;;;;;;;5006652;28;20050;-78
2023/09/03 11:41:42;;;;;;;1.20;1.20;;;;;;;;;;5008371;28;20022;-78
2023/09/03 11:44:13;;;;;;;1.20;1.10;;;;;;;;;;5012131;28;20037;-78
2023/09/03 11:46:39;;;;;;;1.20;1.20;;;;;;;;;;5018111;28;20032;-77
2023/09/03 11:49:05;;;;;;;1.20;1.20;;;;;;;;;;5000455;28;20109;-80
2023/09/03 11:51:31;;;;;;;1.10;1.10;;;;;;;;;;5000884;28;20026;-79
2023/09/03 11:53:58;;;;;;;1.27;1.17;;;;;;;;;;5012947;28;20029;-79
2023/09/03 11:56:25;;;;;;;0.95;0.90;;;;;;;;;;5000784;28;20022;-77
2023/09/03 11:58:53;;;;;;;1.35;1.30;;;;;;;;;;5017869;28;20388;-79
2023/09/03 12:01:19;;;;;;;1.17;1.13;;;;;;;;;;5019475;28;20037;-78
2023/09/03 12:03:46;;;;;;;1.33;1.33;;;;;;;;;;5017911;28;20078;-78
2023/09/03 12:06:12;;;;;;;1.27;1.27;;;;;;;;;;5000911;28;20361;-77
2023/09/03 12:08:38;;;;;;;1.30;1.20;;;;;;;;;;5003494;28;20366;-78
2023/09/03 12:11:05;;;;;;;1.38;1.17;;;;;;;;;;4981458;28;20042;-78
2023/09/03 12:13:32;;;;;;;1.55;1.45;;;;;;;;;;5000060;28;20035;-77
2023/09/03 12:16:09;;;;;;;1.27;1.17;;;;;;;;;;4980956;28;20049;-79
2023/09/03 12:18:36;;;;;;;1.23;1.20;;;;;;;;;;4994675;28;20030;-80
2023/09/03 12:21:02;;;;;;;1.00;1.00;;;;;;;;;;4997020;28;20029;-78
2023/09/03 12:23:29;;;;;;;1.70;1.60;;;;;;;;;;4994851;28;20026;-79
2023/09/03 12:25:55;;;;;;;3.72;1.40;;;;;;;;;;5014630;28;20025;-79
2023/09/03 12:28:34;;;;;;;1.20;1.20;;;;;;;;;;5013489;28;20040;-77
2023/09/03 12:31:01;;;;;;;1.27;1.27;;;;;;;;;;5021974;28;20038;-77
2023/09/03 12:33:43;;;;;;;1.42;1.30;;;;;;;;;;5017067;28;20040;-78
2023/09/03 12:36:19;;;;;;;1.30;1.20;;;;;;;;;;5011650;28;20029;-78
2023/09/03 12:38:48;;;;;;;1.58;1.48;;;;;;;;;;4995234;28;20022;-78
2023/09/03 12:41:14;;;;;;;0.95;0.95;;;;;;;;;;4999079;28;20025;-78
2023/09/03 12:43:41;;;;;;;2.30;1.20;;;;;;;;;;5024691;28;20022;-78
2023/09/03 12:46:08;;;;;;;2.00;1.10;;;;;;;;;;5015256;28;20029;-78
2023/09/03 12:48:34;;;;;;;0.90;0.90;;;;;;;;;;5014929;28;20026;-77
2023/09/03 12:51:00;;;;;;;1.20;1.10;;;;;;;;;;5013930;28;20037;-76
2023/09/03 12:53:26;;;;;;;1.05;1.02;;;;;;;;;;5006103;28;20060;-78
2023/09/03 12:55:52;;;;;;;1.77;1.02;;;;;;;;;;4997463;28;20021;-79
2023/09/03 12:58:18;;;;;;;1.10;1.02;;;;;;;;;;4997266;28;20072;-78
2023/09/03 13:00:45;;;;;;;1.35;1.25;;;;;;;;;;4998316;28;20018;-78
2023/09/03 13:03:11;;;;;;;1.17;1.10;;;;;;;;;;5000846;28;20049;-77
2023/09/03 13:05:37;;;;;;;1.13;1.13;;;;;;;;;;5025497;28;20074;-76
2023/09/03 13:08:03;;;;;;;0.90;0.90;;;;;;;;;;5039033;28;20034;-78
2023/09/03 13:10:29;;;;;;;0.80;0.80;;;;;;;;;;5024083;28;20033;-78
2023/09/03 13:12:55;;;;;;;0.90;0.90;;;;;;;;;;5017690;28;20018;-78
2023/09/03 13:15:21;;;;;;;1.58;1.08;;;;;;;;;;5007992;28;20026;-78
2023/09/03 13:17:50;;;;;;;1.00;1.00;;;;;;;;;;4997919;28;20026;-78
2023/09/03 13:20:16;;;;;;;1.10;1.10;;;;;;;;;;4997295;28;20025;-78
2023/09/03 13:22:43;;;;;;;1.02;1.00;;;;;;;;;;4998089;28;20026;-77
2023/09/03 13:25:09;;;;;;;1.25;1.15;;;;;;;;;;4980828;28;20034;-78
2023/09/03 13:27:35;;;;;;;2.30;1.17;;;;;;;;;;4979574;28;20034;-77
2023/09/03 13:30:01;;;;;;;1.10;1.00;;;;;;;;;;4997383;28;20023;-78
2023/09/03 13:32:27;;;;;;;0.98;0.98;;;;;;;;;;4997561;28;20026;-77
2023/09/03 13:34:53;;;;;;;1.00;1.00;;;;;;;;;;4996971;28;20105;-78
2023/09/03 13:37:19;;;;;;;1.50;1.40;;;;;;;;;;5013087;28;20036;-79
2023/09/03 13:39:45;;;;;;;1.00;1.00;;;;;;;;;;5017395;28;20022;-78
2023/09/03 13:42:11;;;;;;;2.30;0.93;;;;;;;;;;5017951;28;20037;-77
2023/09/03 13:44:37;;;;;;;0.85;0.85;;;;;;;;;;5016499;28;20039;-78
2023/09/03 13:47:05;;;;;;;1.33;1.23;;;;;;;;;;5016265;28;20033;-79
2023/09/03 13:49:31;;;;;;;0.80;0.80;;;;;;;;;;4999153;28;20171;-79
2023/09/03 13:51:57;;;;;;;1.20;0.98;;;;;;;;;;5009023;28;20054;-78
2023/09/03 13:54:23;;;;;;;0.90;0.90;;;;;;;;;;5016424;28;20057;-77
2023/09/03 13:56:49;;;;;;;1.98;1.20;;;;;;;;;;5013681;28;20036;-79
2023/09/03 13:59:15;;;;;;;1.02;1.02;;;;;;;;;;5008732;28;20030;-78
2023/09/03 14:01:41;;;;;;;0.88;0.88;;;;;;;;;;5008245;28;20022;-78
2023/09/03 14:04:07;;;;;;;1.20;1.10;;;;;;;;;;5006923;28;20034;-79
2023/09/03 14:06:37;;;;;;;1.45;1.05;;;;;;;;;;5029598;28;20057;-81
2023/09/03 14:09:04;;;;;;;1.20;1.10;;;;;;;;;;5038984;28;20038;-80
2023/09/03 14:11:30;;;;;;;1.00;1.00;;;;;;;;;;5042649;28;19998;-79
2023/09/03 14:13:56;;;;;;;2.70;1.13;;;;;;;;;;5050231;28;20024;-79
2023/09/03 14:16:22;;;;;;;0.57;0.57;;;;;;;;;;5049920;28;20038;-80
2023/09/03 14:18:49;;;;;;;1.52;0.90;;;;;;;;;;5026852;28;20042;-80
2023/09/03 14:21:18;;;;;;;1.52;1.10;;;;;;;;;;5021166;28;20036;-78
2023/09/03 14:23:44;;;;;;;1.02;1.00;;;;;;;;;;5021202;28;20041;-79
2023/09/03 14:26:18;;;;;;;1.10;1.00;;;;;;;;;;5023365;28;20431;-79
2023/09/03 14:28:44;;;;;;;1.00;1.00;;;;;;;;;;5026792;28;20025;-77
2023/09/03 14:31:10;;;;;;;0.90;0.90;;;;;;;;;;5023164;28;20018;-79
2023/09/03 14:33:36;;;;;;;1.23;1.13;;;;;;;;;;5016498;28;20065;-78
2023/09/03 14:36:02;;;;;;;0.88;0.88;;;;;;;;;;5010207;28;20235;-78
2023/09/03 14:38:28;;;;;;;1.80;1.25;;;;;;;;;;5008432;28;20018;-78
2023/09/03 14:40:54;;;;;;;1.10;1.00;;;;;;;;;;5004268;28;20030;-80
2023/09/03 14:43:20;;;;;;;0.90;0.90;;;;;;;;;;5024642;28;20018;-79